createdAt,value
2022-10-05T00:00:51.370Z,101236.22
2022-10-05T00:03:18.362Z,101229.50
2022-10-05T00:05:46.330Z,101225.78
2022-10-05T00:08:18.962Z,101218.91
2022-10-05T00:10:46.776Z,101220.25
2022-10-05T00:13:25.285Z,101232.78
2022-10-05T00:16:16.343Z,101231.88
2022-10-05T00:18:50.178Z,101239.03
2022-10-05T00:21:23.405Z,101237.38
2022-10-05T00:23:51.275Z,101248.06
2022-10-05T00:26:24.821Z,101241.03
2022-10-05T00:28:53.632Z,101240.50
2022-10-05T00:31:26.678Z,101240.22
2022-10-05T00:33:55.206Z,101237.06
2022-10-05T00:36:22.207Z,101237.84
2022-10-05T00:38:49.682Z,101238.41
2022-10-05T00:41:45.695Z,101232.09
2022-10-05T00:44:35.922Z,101247.13
2022-10-05T00:47:18.578Z,101245.56
2022-10-05T00:49:51.334Z,101246.88
2022-10-05T00:52:33.445Z,101248.09
2022-10-05T00:55:05.680Z,101240.75
2022-10-05T00:57:50.978Z,101245.75
2022-10-05T01:00:26.163Z,101239.25
2022-10-05T01:03:28.829Z,101238.59
2022-10-05T01:06:32.748Z,101241.94
2022-10-05T01:09:11.267Z,101239.06
2022-10-05T01:11:40.850Z,101240.25
2022-10-05T01:14:07.711Z,101237.41
2022-10-05T01:16:51.084Z,101235.41
2022-10-05T01:19:21.091Z,101235.41
2022-10-05T01:21:55.903Z,101235.31
2022-10-05T01:24:41.164Z,101231.34
2022-10-05T01:27:18.536Z,101237.72
2022-10-05T01:30:02.505Z,101250.44
2022-10-05T01:32:39.584Z,101241.72
2022-10-05T01:35:22.122Z,101234.16
2022-10-05T01:38:01.505Z,101231.09
2022-10-05T01:40:44.745Z,101233.31
2022-10-05T01:43:34.426Z,101246.38
2022-10-05T01:46:07.562Z,101256.41
2022-10-05T01:48:53.276Z,101248.22
2022-10-05T01:51:37.552Z,101253.00
2022-10-05T01:54:21.158Z,101264.28
2022-10-05T01:57:13.063Z,101261.59
2022-10-05T02:00:01.546Z,101271.88
2022-10-05T02:02:31.846Z,101275.56
2022-10-05T02:05:14.145Z,101279.28
2022-10-05T02:07:54.861Z,101273.25
2022-10-05T02:10:33.059Z,101267.88
2022-10-05T02:13:35.395Z,101266.59
2022-10-05T02:16:18.051Z,101264.22
2022-10-05T02:18:56.939Z,101270.09
2022-10-05T02:21:25.665Z,101274.75
2022-10-05T02:23:57.745Z,101280.47
2022-10-05T02:26:26.665Z,101284.00
2022-10-05T02:29:04.339Z,101280.47
2022-10-05T02:31:40.635Z,101279.16
2022-10-05T02:34:23.760Z,101272.59
2022-10-05T02:36:59.030Z,101277.66
2022-10-05T02:39:35.867Z,101273.69
2022-10-05T02:42:30.395Z,101280.53
2022-10-05T02:45:03.704Z,101273.53
2022-10-05T02:47:55.474Z,101279.59
2022-10-05T02:50:45.457Z,101272.28
2022-10-05T02:53:25.596Z,101284.44
2022-10-05T02:56:09.261Z,101273.69
2022-10-05T02:58:46.430Z,101271.66
2022-10-05T03:01:35.952Z,101261.75
2022-10-05T03:04:36.909Z,101266.53
2022-10-05T03:07:16.424Z,101267.75
2022-10-05T03:10:01.289Z,101258.69
2022-10-05T03:12:37.753Z,101263.03
2022-10-05T03:16:00.018Z,101267.44
2022-10-05T03:18:39.353Z,101259.06
2022-10-05T03:21:45.838Z,101253.50
2022-10-05T03:24:15.991Z,101262.06
2022-10-05T03:27:08.935Z,101262.94
2022-10-05T03:29:57.717Z,101265.94
2022-10-05T03:32:35.105Z,101272.50
2022-10-05T03:35:23.269Z,101268.84
2022-10-05T03:37:56.239Z,101266.53
2022-10-05T03:40:48.988Z,101262.19
2022-10-05T03:43:52.610Z,101261.47
2022-10-05T03:46:53.165Z,101254.53
2022-10-05T03:49:44.749Z,101258.72
2022-10-05T03:52:38.760Z,101256.22
2022-10-05T03:55:26.473Z,101257.06
2022-10-05T03:57:58.746Z,101251.69
2022-10-05T04:00:30.843Z,101245.66
2022-10-05T04:03:10.296Z,101242.00
2022-10-05T04:05:50.644Z,101247.88
2022-10-05T04:08:36.458Z,101243.84
2022-10-05T04:11:13.765Z,101252.28
2022-10-05T04:13:54.470Z,101252.63
2022-10-05T04:16:55.895Z,101256.44
2022-10-05T04:19:52.127Z,101257.28
2022-10-05T04:22:30.213Z,101261.16
2022-10-05T04:25:23.959Z,101264.34
2022-10-05T04:28:01.433Z,101258.34
2022-10-05T04:30:30.942Z,101264.56
2022-10-05T04:32:59.660Z,101251.25
2022-10-05T04:35:50.457Z,101257.13
2022-10-05T04:38:28.155Z,101258.09
2022-10-05T04:41:14.260Z,101261.09
2022-10-05T04:44:13.502Z,101252.22
2022-10-05T04:47:05.388Z,101245.84
2022-10-05T04:49:58.340Z,101251.03
2022-10-05T04:52:40.238Z,101263.44
2022-10-05T04:55:31.033Z,101263.63
2022-10-05T04:58:15.026Z,101270.53
2022-10-05T05:01:08.356Z,101274.56
2022-10-05T05:03:57.573Z,101277.69
2022-10-05T05:07:33.827Z,101277.59
2022-10-05T05:10:18.017Z,101282.97
2022-10-05T05:13:03.657Z,101289.06
2022-10-05T05:16:05.647Z,101283.38
2022-10-05T05:18:45.232Z,101289.06
2022-10-05T05:21:33.309Z,101294.56
2022-10-05T05:24:27.824Z,101292.06
2022-10-05T05:27:01.249Z,101286.88
2022-10-05T05:30:05.718Z,101288.97
2022-10-05T05:32:59.461Z,101287.41
2022-10-05T05:35:46.124Z,101294.44
2022-10-05T05:38:21.637Z,101294.41
2022-10-05T05:41:25.103Z,101296.22
2022-10-05T05:44:08.610Z,101296.19
2022-10-05T05:47:03.042Z,101299.81
2022-10-05T05:49:48.513Z,101295.34
2022-10-05T05:52:26.194Z,101309.47
2022-10-05T05:55:00.153Z,101303.38
2022-10-05T05:57:33.734Z,101305.25
2022-10-05T06:00:16.587Z,101303.91
2022-10-05T06:02:55.735Z,101300.38
2022-10-05T06:05:34.503Z,101304.63
2022-10-05T06:08:16.065Z,101299.91
2022-10-05T06:10:57.700Z,101303.53
2022-10-05T06:13:33.099Z,101298.53
2022-10-05T06:16:20.002Z,101302.88
2022-10-05T06:19:04.087Z,101305.03
2022-10-05T06:22:22.674Z,101306.13
2022-10-05T06:25:11.985Z,101300.72
2022-10-05T06:28:11.945Z,101310.38
2022-10-05T06:31:20.373Z,101314.31
2022-10-05T06:33:54.859Z,101311.00
2022-10-05T06:36:40.915Z,101316.03
2022-10-05T06:39:17.427Z,101322.41
2022-10-05T06:41:47.713Z,101320.06
2022-10-05T06:44:22.274Z,101321.88
2022-10-05T06:47:34.810Z,101323.41
2022-10-05T06:50:29.588Z,101323.69
2022-10-05T06:53:40.963Z,101316.22
2022-10-05T06:56:16.561Z,101317.25
2022-10-05T06:59:04.931Z,101320.47
2022-10-05T07:01:37.914Z,101326.03
2022-10-05T07:04:24.372Z,101330.91
2022-10-05T07:07:10.255Z,101328.66
2022-10-05T07:10:02.225Z,101332.25
2022-10-05T07:12:54.433Z,101329.47
2022-10-05T07:15:43.863Z,101337.72
2022-10-05T07:18:12.783Z,101334.94
2022-10-05T07:21:02.801Z,101334.50
2022-10-05T07:23:36.059Z,101333.78
2022-10-05T07:26:06.272Z,101340.88
2022-10-05T07:28:49.308Z,101347.53
2022-10-05T07:31:48.809Z,101341.50
2022-10-05T07:34:24.892Z,101337.41
2022-10-05T07:37:27.144Z,101339.75
2022-10-05T07:40:00.660Z,101337.66
2022-10-05T07:42:52.091Z,101339.81
2022-10-05T07:45:43.754Z,101339.53
2022-10-05T07:48:21.651Z,101343.31
2022-10-05T07:51:06.727Z,101345.22
2022-10-05T07:53:41.236Z,101350.50
2022-10-05T07:56:22.418Z,101340.75
2022-10-05T07:59:03.123Z,101342.09
2022-10-05T08:01:35.131Z,101342.75
2022-10-05T08:04:11.441Z,101339.44
2022-10-05T08:06:50.268Z,101344.69
2022-10-05T08:09:53.783Z,101339.09
2022-10-05T08:12:53.742Z,101345.34
2022-10-05T08:15:25.926Z,101353.09
2022-10-05T08:18:00.646Z,101346.00
2022-10-05T08:20:42.943Z,101349.72
2022-10-05T08:23:09.931Z,101344.97
2022-10-05T08:26:09.460Z,101344.31
2022-10-05T08:28:54.336Z,101336.59
2022-10-05T08:31:30.090Z,101329.94
2022-10-05T08:34:01.222Z,101331.16
2022-10-05T08:37:00.655Z,101337.31
2022-10-05T08:39:34.766Z,101333.97
2022-10-05T08:42:16.882Z,101327.31
2022-10-05T08:45:06.082Z,101327.38
2022-10-05T08:47:57.649Z,101342.09
2022-10-05T08:50:33.785Z,101344.94
2022-10-05T08:53:03.387Z,101345.06
2022-10-05T08:55:47.374Z,101346.38
2022-10-05T08:58:54.300Z,101349.66
2022-10-05T09:01:35.871Z,101348.81
2022-10-05T09:04:21.276Z,101346.28
2022-10-05T09:07:23.640Z,101345.56
2022-10-05T09:10:30.040Z,101342.03
2022-10-05T09:13:09.457Z,101338.38
2022-10-05T09:15:58.393Z,101336.91
2022-10-05T09:19:01.176Z,101333.63
2022-10-05T09:21:52.666Z,101334.84
2022-10-05T09:24:28.154Z,101329.41
2022-10-05T09:27:17.607Z,101341.16
2022-10-05T09:30:19.642Z,101323.22
2022-10-05T09:32:57.994Z,101331.47
2022-10-05T09:35:49.625Z,101318.34
2022-10-05T09:38:31.790Z,101322.34
2022-10-05T09:41:24.937Z,101318.56
2022-10-05T09:44:03.855Z,101321.06
2022-10-05T09:46:37.030Z,101313.59
2022-10-05T09:49:19.285Z,101307.91
2022-10-05T09:52:07.764Z,101305.50
2022-10-05T09:54:47.262Z,101307.22
2022-10-05T09:57:33.618Z,101309.63
2022-10-05T10:00:24.377Z,101303.19
2022-10-05T10:03:05.948Z,101304.84
2022-10-05T10:05:47.608Z,101304.09
2022-10-05T10:08:27.707Z,101306.22
2022-10-05T10:11:25.378Z,101313.06
2022-10-05T10:14:11.648Z,101309.13
2022-10-05T10:16:56.835Z,101311.66
2022-10-05T10:19:48.726Z,101316.91
2022-10-05T10:22:18.902Z,101312.78
2022-10-05T10:25:03.133Z,101312.06
2022-10-05T10:27:42.153Z,101317.41
2022-10-05T10:30:39.929Z,101303.84
2022-10-05T10:33:25.732Z,101305.78
2022-10-05T10:36:07.007Z,101292.50
2022-10-05T10:39:20.827Z,101295.00
2022-10-05T10:42:12.270Z,101291.47
2022-10-05T10:44:54.971Z,101285.56
2022-10-05T10:47:41.179Z,101279.66
2022-10-05T10:50:08.383Z,101278.47
2022-10-05T10:53:12.618Z,101279.16
2022-10-05T10:56:16.762Z,101278.06
2022-10-05T10:59:13.082Z,101266.78
2022-10-05T11:02:04.632Z,101268.25
2022-10-05T11:04:58.218Z,101263.41
2022-10-05T11:08:03.351Z,101262.94
2022-10-05T11:10:51.583Z,101255.94
2022-10-05T11:13:25.003Z,101257.88
2022-10-05T11:16:19.450Z,101259.25
2022-10-05T11:19:21.690Z,101252.13
2022-10-05T11:21:59.190Z,101251.06
2022-10-05T11:24:54.830Z,101243.19
2022-10-05T11:27:50.185Z,101246.00
2022-10-05T11:30:51.318Z,101239.19
2022-10-05T11:33:43.422Z,101237.28
2022-10-05T11:36:22.876Z,101234.56
2022-10-05T11:39:26.947Z,101231.84
2022-10-05T11:42:23.535Z,101228.31
2022-10-05T11:45:24.421Z,101218.56
2022-10-05T11:48:33.740Z,101225.44
2022-10-05T11:51:35.172Z,101215.13
2022-10-05T11:54:08.148Z,101209.75
2022-10-05T11:56:44.797Z,101208.75
2022-10-05T11:59:30.736Z,101209.91
2022-10-05T12:02:25.731Z,101203.66
2022-10-05T12:05:46.923Z,101206.97
2022-10-05T12:08:55.911Z,101202.97
2022-10-05T12:11:22.829Z,101197.09
2022-10-05T12:14:04.672Z,101189.38
2022-10-05T12:16:53.788Z,101193.56
2022-10-05T12:19:30.047Z,101179.94
2022-10-05T12:22:04.666Z,101174.00
2022-10-05T12:24:37.650Z,101175.56
2022-10-05T12:27:27.719Z,101172.34
2022-10-05T12:30:25.245Z,101165.25
2022-10-05T12:33:02.233Z,101165.56
2022-10-05T12:35:49.314Z,101165.81
2022-10-05T12:38:41.772Z,101160.38
2022-10-05T12:41:19.705Z,101159.56
2022-10-05T12:44:37.822Z,101146.19
2022-10-05T12:47:24.726Z,101153.19
2022-10-05T12:50:03.565Z,101155.69
2022-10-05T12:52:48.600Z,101148.75
2022-10-05T12:55:28.471Z,101143.72
2022-10-05T12:58:16.473Z,101147.22
2022-10-05T13:01:21.740Z,101141.56
2022-10-05T13:04:19.495Z,101129.59
2022-10-05T13:06:52.599Z,101136.19
2022-10-05T13:09:48.936Z,101134.19
2022-10-05T13:12:48.098Z,101123.25
2022-10-05T13:15:19.661Z,101130.88
2022-10-05T13:18:00.222Z,101124.53
2022-10-05T13:20:38.017Z,101128.41
2022-10-05T13:23:14.064Z,101134.56
2022-10-05T13:25:51.909Z,101132.78
2022-10-05T13:28:30.774Z,101132.84
2022-10-05T13:31:18.743Z,101131.66
2022-10-05T13:33:59.905Z,101131.97
2022-10-05T13:36:48.001Z,101114.50
2022-10-05T13:39:14.999Z,101132.09
2022-10-05T13:41:52.014Z,101122.19
2022-10-05T13:44:35.379Z,101127.66
2022-10-05T13:47:13.588Z,101126.06
2022-10-05T13:50:19.311Z,101115.63
2022-10-05T13:53:14.057Z,101115.09
2022-10-05T13:55:54.601Z,101114.69
2022-10-05T13:58:37.027Z,101120.47
2022-10-05T14:01:14.783Z,101122.34
2022-10-05T14:04:24.803Z,101119.09
2022-10-05T14:06:54.822Z,101118.41
2022-10-05T14:09:35.101Z,101108.31
2022-10-05T14:12:04.778Z,101107.19
2022-10-05T14:14:34.071Z,101100.34
2022-10-05T14:17:05.890Z,101090.81
2022-10-05T14:19:42.208Z,101091.91
2022-10-05T14:22:24.390Z,101082.22
2022-10-05T14:24:56.122Z,101090.91
2022-10-05T14:27:28.889Z,101089.69
2022-10-05T14:29:58.126Z,101083.47
2022-10-05T14:32:27.732Z,101071.44
2022-10-05T14:35:07.530Z,101071.88
2022-10-05T14:37:56.279Z,101081.44
2022-10-05T14:40:36.475Z,101082.25
2022-10-05T14:43:15.513Z,101074.81
2022-10-05T14:46:05.591Z,101071.50
2022-10-05T14:48:42.984Z,101073.16
2022-10-05T14:51:13.069Z,101061.00
2022-10-05T14:53:43.685Z,101059.38
2022-10-05T14:56:23.283Z,101070.56
2022-10-05T14:59:04.263Z,101067.56
2022-10-05T15:01:36.023Z,101066.38
2022-10-05T15:04:26.927Z,101063.84
2022-10-05T15:07:18.619Z,101061.94
2022-10-05T15:09:54.390Z,101065.75
2022-10-05T15:12:49.395Z,101063.81
2022-10-05T15:15:34.040Z,101055.97
2022-10-05T15:18:05.986Z,101067.75
2022-10-05T15:20:57.559Z,101060.00
2022-10-05T15:23:38.469Z,101066.31
2022-10-05T15:26:30.243Z,101053.50
2022-10-05T15:29:07.176Z,101063.81
2022-10-05T15:31:46.779Z,101066.47
2022-10-05T15:34:18.730Z,101060.44
2022-10-05T15:36:54.613Z,101058.19
2022-10-05T15:39:43.574Z,101065.44
2022-10-05T15:42:14.763Z,101058.59
2022-10-05T15:45:11.049Z,101060.16
2022-10-05T15:48:18.046Z,101056.00
2022-10-05T15:50:57.097Z,101056.09
2022-10-05T15:53:52.619Z,101059.56
2022-10-05T15:56:38.738Z,101064.34
2022-10-05T15:59:20.047Z,101061.94
2022-10-05T16:01:57.441Z,101060.66
2022-10-05T16:04:39.869Z,101060.88
2022-10-05T16:07:36.251Z,101055.50
2022-10-05T16:10:21.594Z,101062.31
2022-10-05T16:13:09.742Z,101057.44
2022-10-05T16:15:42.937Z,101058.78
2022-10-05T16:18:32.432Z,101057.81
2022-10-05T16:21:05.364Z,101066.25
2022-10-05T16:23:47.733Z,101064.25
2022-10-05T16:26:48.972Z,101065.31
2022-10-05T16:29:37.227Z,101066.41
2022-10-05T16:32:16.112Z,101072.00
2022-10-05T16:34:50.716Z,101081.84
2022-10-05T16:37:59.673Z,101084.56
2022-10-05T16:40:51.875Z,101086.25
2022-10-05T16:43:21.836Z,101085.34
2022-10-05T16:46:16.057Z,101080.94
2022-10-05T16:48:57.546Z,101084.31
2022-10-05T16:51:40.052Z,101079.41
2022-10-05T16:54:25.320Z,101076.50
2022-10-05T16:56:59.588Z,101083.28
2022-10-05T16:59:32.506Z,101084.56
2022-10-05T17:02:15.970Z,101078.69
2022-10-05T17:05:10.309Z,101082.09
2022-10-05T17:07:41.152Z,101083.78
2022-10-05T17:10:38.734Z,101082.66
2022-10-05T17:13:36.475Z,101082.28
2022-10-05T17:16:25.346Z,101085.06
2022-10-05T17:19:08.743Z,101093.59
2022-10-05T17:21:46.216Z,101088.22
2022-10-05T17:24:32.910Z,101088.72
2022-10-05T17:27:23.169Z,101089.56
2022-10-05T17:29:55.651Z,101092.66
2022-10-05T17:32:22.592Z,101096.75
2022-10-05T17:35:01.714Z,101098.44
2022-10-05T17:37:35.621Z,101093.91
2022-10-05T17:40:38.394Z,101091.69
2022-10-05T17:43:17.301Z,101097.13
2022-10-05T17:45:44.309Z,101097.59
2022-10-05T17:48:12.982Z,101102.56
2022-10-05T17:51:00.688Z,101095.56
2022-10-05T17:54:06.878Z,101101.28
2022-10-05T17:56:57.200Z,101102.91
2022-10-05T17:59:46.480Z,101092.25
2022-10-05T18:02:19.714Z,101102.09
2022-10-05T18:05:12.857Z,101097.13
2022-10-05T18:07:41.078Z,101091.06
2022-10-05T18:10:13.443Z,101102.44
2022-10-05T18:12:42.058Z,101096.16
2022-10-05T18:15:08.951Z,101098.41
2022-10-05T18:17:58.473Z,101103.16
2022-10-05T18:20:28.820Z,101103.03
2022-10-05T18:23:09.544Z,101106.22
2022-10-05T18:26:18.137Z,101110.09
2022-10-05T18:28:53.965Z,101116.69
2022-10-05T18:31:39.013Z,101109.31
2022-10-05T18:34:34.507Z,101122.34
2022-10-05T18:37:04.074Z,101114.09
2022-10-05T18:39:52.320Z,101116.91
2022-10-05T18:42:38.136Z,101118.78
2022-10-05T18:45:21.578Z,101123.28
2022-10-05T18:48:04.113Z,101121.72
2022-10-05T18:50:38.549Z,101125.53
2022-10-05T18:53:11.670Z,101127.41
2022-10-05T18:55:45.614Z,101125.38
2022-10-05T18:58:26.133Z,101123.81
2022-10-05T19:01:28.614Z,101131.38
2022-10-05T19:04:09.906Z,101135.56
2022-10-05T19:06:45.795Z,101124.81
2022-10-05T19:09:24.181Z,101127.59
2022-10-05T19:12:29.676Z,101129.50
2022-10-05T19:15:22.591Z,101131.53
2022-10-05T19:18:14.022Z,101135.38
2022-10-05T19:20:47.702Z,101130.25
2022-10-05T19:23:28.641Z,101139.81
2022-10-05T19:26:07.627Z,101130.00
2022-10-05T19:28:39.488Z,101129.25
2022-10-05T19:31:12.234Z,101140.13
2022-10-05T19:34:16.734Z,101138.94
2022-10-05T19:37:08.696Z,101149.81
2022-10-05T19:39:44.285Z,101138.19
2022-10-05T19:42:44.735Z,101145.97
2022-10-05T19:45:23.554Z,101149.97
2022-10-05T19:48:05.583Z,101149.97
2022-10-05T19:50:34.645Z,101141.84
2022-10-05T19:53:08.325Z,101149.28
2022-10-05T19:55:39.824Z,101141.72
2022-10-05T19:58:23.453Z,101138.19
2022-10-05T20:00:57.858Z,101145.44
2022-10-05T20:03:32.921Z,101142.13
2022-10-05T20:06:07.275Z,101141.66
2022-10-05T20:08:48.534Z,101138.81
2022-10-05T20:11:16.973Z,101142.75
2022-10-05T20:13:45.488Z,101145.16
2022-10-05T20:16:34.216Z,101142.13
2022-10-05T20:19:23.764Z,101140.63
2022-10-05T20:21:58.942Z,101147.41
2022-10-05T20:24:29.926Z,101149.59
2022-10-05T20:27:08.699Z,101156.22
2022-10-05T20:29:43.495Z,101160.00
2022-10-05T20:32:13.570Z,101153.75
2022-10-05T20:34:42.429Z,101156.06
2022-10-05T20:37:11.623Z,101155.25
2022-10-05T20:39:40.094Z,101153.50
2022-10-05T20:42:10.318Z,101146.50
2022-10-05T20:44:38.181Z,101148.69
2022-10-05T20:47:09.690Z,101156.28
2022-10-05T20:49:38.670Z,101159.44
2022-10-05T20:52:10.094Z,101163.94
2022-10-05T20:54:38.924Z,101163.19
2022-10-05T20:57:06.668Z,101163.03
2022-10-05T20:59:35.228Z,101162.44
2022-10-05T21:02:03.950Z,101168.69
2022-10-05T21:04:42.874Z,101168.09
2022-10-05T21:07:10.274Z,101160.41
2022-10-05T21:09:38.622Z,101164.44
2022-10-05T21:12:05.739Z,101166.94
2022-10-05T21:14:34.569Z,101173.31
2022-10-05T21:17:02.493Z,101172.78
2022-10-05T21:19:30.099Z,101161.47
2022-10-05T21:22:02.657Z,101170.88
2022-10-05T21:24:29.712Z,101163.06
2022-10-05T21:26:57.694Z,101160.72
2022-10-05T21:29:24.820Z,101163.06
2022-10-05T21:31:52.204Z,101162.50
2022-10-05T21:34:19.315Z,101159.78
2022-10-05T21:36:46.415Z,101170.06
2022-10-05T21:39:16.181Z,101172.66
2022-10-05T21:41:49.502Z,101165.75
2022-10-05T21:44:17.001Z,101173.47
2022-10-05T21:46:44.116Z,101175.22
2022-10-05T21:49:15.042Z,101166.91
2022-10-05T21:51:45.023Z,101165.09
2022-10-05T21:54:15.570Z,101170.09
2022-10-05T21:56:46.031Z,101163.47
2022-10-05T21:59:16.889Z,101172.66
2022-10-05T22:01:43.899Z,101167.00
2022-10-05T22:04:10.863Z,101170.34
2022-10-05T22:06:38.047Z,101170.34
2022-10-05T22:09:06.192Z,101176.59
2022-10-05T22:11:33.676Z,101170.41
2022-10-05T22:14:03.690Z,101165.81
2022-10-05T22:16:34.905Z,101169.78
2022-10-05T22:19:05.269Z,101161.50
2022-10-05T22:21:34.334Z,101167.53
2022-10-05T22:24:02.890Z,101174.19
2022-10-05T22:26:30.317Z,101166.28
2022-10-05T22:28:57.435Z,101169.19
2022-10-05T22:31:24.521Z,101172.38
2022-10-05T22:33:51.688Z,101172.56
2022-10-05T22:36:19.177Z,101176.31
2022-10-05T22:38:47.723Z,101171.97
2022-10-05T22:41:16.598Z,101169.06
2022-10-05T22:43:43.828Z,101169.06
2022-10-05T22:46:12.572Z,101164.50
2022-10-05T22:48:40.455Z,101169.28
2022-10-05T22:51:07.927Z,101166.81
2022-10-05T22:53:35.528Z,101164.88
2022-10-05T22:56:10.770Z,101161.72
2022-10-05T22:58:38.465Z,101165.94
2022-10-05T23:01:08.030Z,101165.13
2022-10-05T23:03:35.560Z,101170.78
2022-10-05T23:06:11.222Z,101173.91
2022-10-05T23:08:39.717Z,101169.75
2022-10-05T23:11:09.123Z,101172.91
2022-10-05T23:13:36.489Z,101171.47
2022-10-05T23:16:12.582Z,101162.28
2022-10-05T23:18:40.393Z,101163.78
2022-10-05T23:21:08.698Z,101172.91
2022-10-05T23:23:37.593Z,101170.19
2022-10-05T23:26:05.758Z,101173.53
2022-10-05T23:28:34.441Z,101168.94
2022-10-05T23:31:03.927Z,101166.22
2022-10-05T23:33:31.310Z,101171.44
2022-10-05T23:36:07.190Z,101171.44
2022-10-05T23:38:35.261Z,101174.56
2022-10-05T23:41:09.122Z,101178.31
2022-10-05T23:43:36.963Z,101176.44
2022-10-05T23:46:05.382Z,101179.16
2022-10-05T23:48:33.265Z,101177.28
2022-10-05T23:51:00.739Z,101182.47
2022-10-05T23:53:27.765Z,101178.09
2022-10-05T23:55:55.651Z,101177.50
2022-10-05T23:58:23.357Z,101178.75
